createdAt,value
2023-04-10T00:00:16.443Z,71.35
2023-04-10T00:02:48.740Z,71.11
2023-04-10T00:05:19.395Z,71.31
2023-04-10T00:46:57.890Z,72.63
2023-04-10T00:49:27.311Z,72.46
2023-04-10T00:52:14.643Z,72.23
2023-04-10T01:40:42.513Z,71.32
2023-04-10T01:43:20.521Z,71.23
2023-04-10T01:45:53.040Z,71.04
2023-04-10T01:48:21.992Z,70.92
2023-04-10T01:50:50.633Z,70.89
2023-04-10T01:53:20.382Z,71.17
2023-04-10T01:55:49.612Z,71.25
2023-04-10T01:58:18.628Z,71.32
2023-04-10T02:00:48.047Z,71.37
2023-04-10T02:22:01.212Z,71.33
2023-04-10T02:24:31.352Z,71.45
2023-04-10T02:27:14.211Z,71.51
2023-04-10T02:29:43.430Z,71.84
2023-04-10T02:45:19.292Z,72.20
2023-04-10T02:48:29.343Z,72.20
2023-04-10T03:33:35.416Z,71.46
2023-04-10T03:39:59.296Z,71.26
2023-04-10T03:43:08.045Z,70.43
2023-04-10T03:45:38.229Z,70.25
2023-04-10T03:48:07.761Z,70.49
2023-04-10T03:50:43.287Z,70.24
2023-04-10T03:53:13.974Z,69.57
2023-04-10T03:55:45.074Z,69.65
2023-04-10T04:08:36.361Z,68.67
2023-04-10T04:12:19.294Z,68.27
2023-04-10T04:31:34.471Z,63.04
2023-04-10T04:38:03.239Z,62.01
2023-04-10T04:41:33.275Z,61.27
2023-04-10T04:44:44.861Z,60.03
2023-04-10T04:54:36.373Z,57.70
2023-04-10T04:57:31.272Z,56.95
2023-04-10T05:00:17.436Z,58.27
2023-04-10T05:03:10.072Z,55.69
2023-04-10T05:06:06.446Z,55.90
2023-04-10T05:09:39.779Z,54.80
2023-04-10T05:13:04.719Z,52.46
2023-04-10T05:23:11.505Z,50.07
2023-04-10T05:26:11.533Z,48.65
2023-04-10T05:29:09.697Z,49.31
2023-04-10T05:31:58.974Z,47.57
2023-04-10T05:34:59.939Z,45.41
2023-04-10T05:37:49.022Z,44.93
2023-04-10T05:40:33.173Z,45.79
2023-04-10T05:43:26.324Z,45.23
2023-04-10T05:46:26.549Z,43.47
2023-04-10T05:49:17.979Z,44.62
2023-04-10T05:52:09.756Z,43.72
2023-04-10T05:54:44.637Z,44.16
2023-04-10T05:57:32.474Z,43.11
2023-04-10T06:00:20.061Z,39.79
2023-04-10T06:03:08.016Z,38.87
2023-04-10T06:05:46.787Z,39.05
2023-04-10T06:08:17.538Z,39.90
2023-04-10T06:10:47.538Z,38.14
2023-04-10T06:13:17.457Z,37.56
2023-04-10T06:15:47.669Z,36.90
2023-04-10T06:18:17.791Z,37.82
2023-04-10T06:20:46.697Z,37.07
2023-04-10T06:23:19.056Z,35.71
2023-04-10T06:25:48.106Z,36.13
2023-04-10T06:28:17.373Z,36.91
2023-04-10T06:30:56.688Z,35.22
2023-04-10T06:33:32.288Z,34.93
2023-04-10T06:36:01.470Z,34.77
2023-04-10T06:38:34.100Z,33.93
2023-04-10T06:41:03.138Z,33.73
2023-04-10T06:43:41.445Z,32.85
2023-04-10T06:46:10.790Z,33.33
2023-04-10T06:48:40.320Z,32.05
2023-04-10T06:51:09.573Z,32.50
2023-04-10T06:53:38.529Z,30.75
2023-04-10T06:56:08.498Z,31.90
2023-04-10T06:58:48.373Z,30.80
2023-04-10T07:01:17.978Z,30.60
2023-04-10T07:03:46.523Z,29.59
2023-04-10T07:06:20.507Z,29.76
2023-04-10T07:08:56.449Z,29.23
2023-04-10T07:11:25.627Z,28.84
2023-04-10T07:13:58.623Z,28.80
2023-04-10T07:16:29.678Z,28.24
2023-04-10T07:18:59.086Z,28.04
2023-04-10T07:21:28.061Z,28.18
2023-04-10T07:23:57.334Z,27.47
2023-04-10T07:26:26.906Z,27.34
2023-04-10T07:28:56.516Z,26.42
2023-04-10T07:31:26.444Z,26.01
2023-04-10T07:33:55.010Z,26.16
2023-04-10T07:36:23.734Z,25.71
2023-04-10T07:38:54.328Z,26.40
2023-04-10T07:41:30.064Z,25.09
2023-04-10T07:44:02.504Z,25.38
2023-04-10T07:46:52.693Z,25.95
2023-04-10T07:49:25.408Z,25.85
2023-04-10T07:51:55.141Z,25.88
2023-04-10T07:54:27.149Z,25.69
2023-04-10T07:56:57.653Z,25.00
2023-04-10T07:59:27.691Z,25.03
2023-04-10T08:01:56.383Z,25.46
2023-04-10T08:04:26.106Z,25.81
2023-04-10T08:06:55.765Z,25.76
2023-04-10T08:09:24.572Z,25.80
2023-04-10T08:11:55.076Z,25.82
2023-04-10T08:14:23.970Z,25.88
2023-04-10T08:16:54.765Z,25.94
2023-04-10T08:19:24.632Z,25.34
2023-04-10T08:21:53.631Z,24.96
2023-04-10T08:24:29.516Z,24.82
2023-04-10T08:27:18.135Z,25.12
2023-04-10T08:29:47.748Z,24.75
2023-04-10T08:32:16.439Z,24.95
2023-04-10T08:34:45.210Z,24.59
2023-04-10T08:37:15.927Z,24.83
2023-04-10T08:39:45.739Z,24.86
2023-04-10T08:42:14.756Z,24.91
2023-04-10T08:44:43.787Z,25.41
2023-04-10T08:47:12.419Z,25.69
2023-04-10T08:50:12.192Z,25.38
2023-04-10T08:52:44.044Z,25.29
2023-04-10T08:55:18.256Z,25.72
2023-04-10T08:57:54.367Z,25.44
2023-04-10T09:00:31.882Z,24.87
2023-04-10T09:03:05.139Z,25.01
2023-04-10T09:05:35.685Z,24.43
2023-04-10T09:08:05.180Z,24.45
2023-04-10T09:10:36.042Z,24.90
2023-04-10T09:13:05.280Z,24.64
2023-04-10T09:15:55.709Z,24.29
2023-04-10T09:18:55.220Z,24.71
2023-04-10T09:21:24.929Z,24.68
2023-04-10T09:24:00.929Z,24.35
2023-04-10T09:26:34.028Z,24.66
2023-04-10T09:29:04.692Z,24.76
2023-04-10T09:31:34.884Z,25.09
2023-04-10T09:34:18.251Z,24.60
2023-04-10T09:37:01.609Z,25.16
2023-04-10T09:39:44.412Z,25.29
2023-04-10T09:42:14.295Z,25.39
2023-04-10T09:44:43.333Z,25.41
2023-04-10T09:47:15.751Z,25.81
2023-04-10T09:49:52.774Z,25.97
2023-04-10T09:52:28.573Z,26.00
2023-04-10T09:54:58.722Z,25.96
2023-04-10T09:57:30.806Z,25.50
2023-04-10T10:00:07.324Z,25.59
2023-04-10T10:02:39.433Z,25.78
2023-04-10T10:05:10.985Z,25.76
2023-04-10T10:07:42.187Z,26.12
2023-04-10T10:10:12.461Z,26.80
2023-04-10T10:12:46.295Z,27.19
2023-04-10T10:15:40.894Z,26.76
2023-04-10T10:18:23.370Z,26.87
2023-04-10T10:20:52.415Z,26.60
2023-04-10T10:23:27.277Z,26.37
2023-04-10T10:26:02.468Z,26.62
2023-04-10T10:28:34.962Z,26.78
2023-04-10T10:31:05.104Z,27.38
2023-04-10T10:33:36.801Z,27.17
2023-04-10T10:36:06.013Z,27.25
2023-04-10T10:38:39.171Z,27.61
2023-04-10T10:41:21.750Z,28.15
2023-04-10T10:44:00.579Z,28.16
2023-04-10T10:46:50.610Z,28.55
2023-04-10T10:50:06.079Z,28.92
2023-04-10T10:52:57.713Z,29.05
2023-04-10T10:55:27.649Z,29.11
2023-04-10T10:57:59.097Z,29.45
2023-04-10T11:00:50.829Z,29.48
2023-04-10T11:03:29.140Z,29.17
2023-04-10T11:06:03.294Z,29.29
2023-04-10T11:08:44.619Z,29.41
2023-04-10T11:11:28.164Z,29.00
2023-04-10T11:14:13.305Z,29.15
2023-04-10T11:16:47.000Z,28.84
2023-04-10T11:19:24.606Z,28.70
2023-04-10T11:22:15.809Z,28.73
2023-04-10T11:24:54.474Z,28.63
2023-04-10T11:27:40.667Z,29.03
2023-04-10T11:30:28.061Z,28.71
2023-04-10T11:32:58.177Z,28.49
2023-04-10T11:35:28.126Z,28.69
2023-04-10T11:38:16.789Z,28.76
2023-04-10T11:41:02.413Z,28.55
2023-04-10T11:43:31.824Z,28.48
2023-04-10T11:46:05.031Z,28.44
2023-04-10T11:48:33.812Z,28.34
2023-04-10T11:51:09.810Z,28.54
2023-04-10T11:53:39.438Z,28.43
2023-04-10T11:56:19.524Z,28.54
2023-04-10T11:58:51.331Z,28.89
2023-04-10T12:01:21.918Z,28.74
2023-04-10T12:03:50.759Z,28.88
2023-04-10T12:06:22.148Z,28.44
2023-04-10T12:08:51.384Z,28.31
2023-04-10T12:11:26.849Z,28.39
2023-04-10T12:13:58.311Z,28.13
2023-04-10T12:16:27.591Z,27.61
2023-04-10T12:19:03.546Z,27.55
2023-04-10T12:21:32.700Z,27.72
2023-04-10T12:24:02.219Z,27.88
2023-04-10T12:26:31.360Z,28.33
2023-04-10T12:28:59.911Z,27.81
2023-04-10T12:31:34.376Z,27.86
2023-04-10T12:34:05.565Z,27.86
2023-04-10T12:36:35.374Z,28.33
2023-04-10T12:39:05.529Z,28.12
2023-04-10T12:41:34.464Z,28.06
2023-04-10T12:44:13.171Z,27.97
2023-04-10T12:46:42.174Z,28.21
2023-04-10T12:49:14.838Z,28.27
2023-04-10T12:51:46.950Z,28.07
2023-04-10T12:54:33.419Z,28.00
2023-04-10T12:57:07.378Z,27.92
2023-04-10T12:59:36.224Z,28.12
2023-04-10T13:02:04.802Z,28.58
2023-04-10T13:04:34.704Z,28.48
2023-04-10T13:07:03.556Z,28.44
2023-04-10T13:09:32.958Z,28.43
2023-04-10T13:12:09.273Z,28.35
2023-04-10T13:14:38.815Z,27.98
2023-04-10T13:17:07.476Z,28.05
2023-04-10T13:19:40.752Z,28.24
2023-04-10T13:22:09.354Z,28.03
2023-04-10T13:24:38.618Z,27.72
2023-04-10T13:27:38.843Z,27.83
2023-04-10T13:30:08.877Z,27.59
2023-04-10T13:32:37.796Z,28.07
2023-04-10T13:35:07.040Z,28.09
2023-04-10T13:37:36.933Z,28.21
2023-04-10T13:40:07.689Z,28.22
2023-04-10T13:42:39.307Z,28.17
2023-04-10T13:45:09.793Z,28.07
2023-04-10T13:47:38.358Z,28.22
2023-04-10T13:50:08.102Z,27.47
2023-04-10T13:52:42.368Z,28.07
2023-04-10T13:55:11.741Z,27.95
2023-04-10T13:57:40.570Z,28.08
2023-04-10T14:00:10.458Z,28.45
2023-04-10T14:02:56.115Z,28.14
2023-04-10T14:05:25.360Z,28.03
2023-04-10T14:07:57.109Z,27.98
2023-04-10T14:10:25.976Z,28.26
2023-04-10T14:12:54.518Z,28.33
2023-04-10T14:15:43.004Z,28.30
2023-04-10T14:18:11.718Z,28.15
2023-04-10T14:20:42.594Z,28.20
2023-04-10T14:23:17.808Z,28.34
2023-04-10T14:25:46.805Z,28.37
2023-04-10T14:28:20.365Z,28.06
2023-04-10T14:30:49.894Z,28.36
2023-04-10T14:33:22.534Z,28.58
2023-04-10T14:35:52.364Z,28.45
2023-04-10T14:38:21.031Z,28.42
2023-04-10T14:40:50.961Z,28.38
2023-04-10T14:43:19.775Z,28.55
2023-04-10T14:45:49.791Z,28.42
2023-04-10T14:48:20.085Z,28.69
2023-04-10T14:50:49.756Z,28.69
2023-04-10T14:53:19.293Z,29.09
2023-04-10T14:55:48.064Z,28.79
2023-04-10T14:58:16.707Z,28.87
2023-04-10T15:00:45.526Z,28.96
2023-04-10T15:03:14.181Z,29.22
2023-04-10T15:06:00.295Z,29.29
2023-04-10T15:08:29.139Z,29.34
2023-04-10T15:10:57.621Z,29.12
2023-04-10T15:13:26.606Z,29.62
2023-04-10T15:15:55.631Z,29.43
2023-04-10T15:18:25.828Z,29.35
2023-04-10T15:20:56.128Z,29.45
2023-04-10T15:23:25.700Z,29.47
2023-04-10T15:25:59.781Z,29.45
2023-04-10T15:28:29.896Z,29.64
2023-04-10T15:30:58.190Z,29.84
2023-04-10T15:33:28.674Z,29.77
2023-04-10T15:35:57.184Z,30.04
2023-04-10T15:38:29.059Z,30.20
2023-04-10T15:40:58.239Z,30.16
2023-04-10T15:43:28.172Z,30.49
2023-04-10T15:46:02.110Z,30.65
2023-04-10T15:48:31.125Z,30.47
2023-04-10T15:51:03.319Z,30.75
2023-04-10T15:53:32.392Z,30.68
2023-04-10T15:56:00.997Z,31.07
2023-04-10T15:58:31.207Z,31.02
2023-04-10T16:00:59.940Z,31.32
2023-04-10T16:03:30.197Z,31.26
2023-04-10T16:05:59.092Z,31.61
2023-04-10T16:08:27.840Z,31.71
2023-04-10T16:10:56.957Z,31.74
2023-04-10T16:13:25.558Z,31.73
2023-04-10T16:15:54.421Z,32.03
2023-04-10T16:18:22.872Z,32.18
2023-04-10T16:20:51.637Z,32.28
2023-04-10T16:23:20.675Z,32.61
2023-04-10T16:25:52.022Z,32.95
2023-04-10T16:28:23.036Z,33.15
2023-04-10T16:30:51.377Z,33.32
2023-04-10T16:33:26.692Z,33.24
2023-04-10T16:35:56.182Z,33.54
2023-04-10T16:38:24.957Z,33.87
2023-04-10T16:40:53.735Z,34.12
2023-04-10T16:43:23.737Z,34.39
2023-04-10T16:45:57.721Z,34.16
2023-04-10T16:48:27.534Z,34.27
2023-04-10T16:50:55.976Z,34.27
2023-04-10T16:53:27.520Z,34.64
2023-04-10T16:56:02.117Z,34.84
2023-04-10T16:58:41.256Z,34.80
2023-04-10T17:01:18.210Z,34.48
2023-04-10T17:03:47.930Z,34.32
2023-04-10T17:06:16.702Z,34.33
2023-04-10T17:08:46.650Z,34.30
2023-04-10T17:11:16.253Z,34.53
2023-04-10T17:13:46.102Z,34.50
2023-04-10T17:16:16.458Z,34.46
2023-04-10T17:18:46.713Z,34.46
2023-04-10T17:21:15.760Z,34.45
2023-04-10T17:23:49.582Z,34.36
2023-04-10T17:26:22.193Z,34.43
2023-04-10T17:28:51.517Z,34.27
2023-04-10T17:31:21.647Z,34.44
2023-04-10T17:33:50.244Z,34.45
2023-04-10T17:36:19.133Z,34.52
2023-04-10T17:38:48.033Z,34.47
2023-04-10T17:41:16.868Z,34.51
2023-04-10T17:43:47.449Z,34.37
2023-04-10T17:46:16.367Z,34.52
2023-04-10T17:48:51.872Z,34.65
2023-04-10T17:51:21.061Z,34.64
2023-04-10T17:53:49.870Z,34.72
2023-04-10T17:56:19.821Z,34.73
2023-04-10T17:58:56.218Z,34.87
2023-04-10T18:01:27.747Z,34.82
2023-04-10T18:04:00.186Z,35.03
2023-04-10T18:06:29.381Z,34.93
2023-04-10T18:08:58.300Z,34.98
2023-04-10T18:11:27.478Z,35.18
2023-04-10T18:13:56.204Z,35.21
2023-04-10T18:16:25.056Z,35.30
2023-04-10T18:18:54.397Z,35.28
2023-04-10T18:21:27.012Z,35.16
2023-04-10T18:23:55.637Z,35.21
2023-04-10T18:26:24.681Z,35.35
2023-04-10T18:28:55.248Z,35.28
2023-04-10T18:31:24.261Z,35.26
2023-04-10T18:34:06.472Z,35.35
2023-04-10T18:36:36.286Z,35.50
2023-04-10T18:39:05.105Z,35.55
2023-04-10T18:41:35.470Z,35.77
2023-04-10T18:44:05.745Z,35.82
2023-04-10T18:46:42.679Z,35.84
2023-04-10T18:49:12.813Z,35.85
2023-04-10T18:51:41.434Z,35.92
2023-04-10T18:54:11.115Z,36.10
2023-04-10T18:56:40.003Z,36.27
2023-04-10T18:59:10.673Z,36.42
2023-04-10T19:01:40.911Z,36.38
2023-04-10T19:04:09.663Z,36.60
2023-04-10T19:06:41.231Z,36.57
2023-04-10T19:09:10.361Z,36.70
2023-04-10T19:11:39.887Z,36.78
2023-04-10T19:14:15.728Z,36.94
2023-04-10T19:16:44.737Z,37.15
2023-04-10T19:19:13.834Z,37.35
2023-04-10T19:21:42.725Z,37.66
2023-04-10T19:24:12.593Z,37.83
2023-04-10T19:26:42.635Z,38.01
2023-04-10T19:29:13.716Z,38.10
2023-04-10T19:31:51.476Z,38.39
2023-04-10T19:34:21.778Z,38.28
2023-04-10T19:36:51.068Z,38.44
2023-04-10T19:39:19.722Z,38.71
2023-04-10T19:41:49.136Z,38.63
2023-04-10T19:44:18.566Z,38.67
2023-04-10T19:46:55.067Z,38.74
2023-04-10T19:49:24.712Z,38.69
2023-04-10T19:51:53.773Z,38.84
2023-04-10T19:54:22.444Z,38.71
2023-04-10T19:56:51.157Z,38.92
2023-04-10T19:59:26.362Z,39.03
2023-04-10T20:01:55.791Z,39.04
2023-04-10T20:04:24.872Z,39.30
2023-04-10T20:06:57.824Z,39.32
2023-04-10T20:09:26.302Z,39.39
2023-04-10T20:11:55.233Z,39.38
2023-04-10T20:14:25.514Z,39.39
2023-04-10T20:16:54.137Z,39.41
2023-04-10T20:19:22.722Z,39.44
2023-04-10T20:21:53.294Z,39.46
2023-04-10T20:24:21.929Z,39.60
2023-04-10T20:26:50.721Z,39.58
2023-04-10T20:29:19.220Z,39.53
2023-04-10T20:31:47.827Z,39.52
2023-04-10T20:34:16.529Z,39.63
2023-04-10T20:36:45.187Z,39.68
2023-04-10T20:39:13.671Z,39.65
2023-04-10T20:41:42.352Z,39.64
2023-04-10T20:44:10.929Z,39.81
2023-04-10T20:46:40.554Z,40.09
2023-04-10T20:49:16.140Z,40.07
2023-04-10T20:51:47.379Z,40.38
2023-04-10T20:54:16.103Z,40.35
2023-04-10T20:56:44.703Z,40.41
2023-04-10T20:59:13.824Z,40.69
2023-04-10T21:01:42.621Z,40.80
2023-04-10T21:04:11.616Z,40.92
2023-04-10T21:06:40.204Z,41.01
2023-04-10T21:09:08.798Z,40.97
2023-04-10T21:11:37.933Z,41.04
2023-04-10T21:14:10.061Z,41.17
2023-04-10T21:16:42.561Z,41.24
2023-04-10T21:19:11.474Z,41.30
2023-04-10T21:21:45.797Z,41.55
2023-04-10T21:24:14.467Z,41.66
2023-04-10T21:26:43.026Z,41.98
2023-04-10T21:29:11.557Z,42.11
2023-04-10T21:31:40.265Z,42.39
2023-04-10T21:34:16.843Z,42.73
2023-04-10T21:36:45.608Z,42.88
2023-04-10T21:39:14.317Z,43.14
2023-04-10T21:41:43.325Z,43.62
2023-04-10T21:44:12.919Z,43.51
2023-04-10T21:46:41.846Z,43.50
2023-04-10T21:49:10.731Z,43.68
2023-04-10T21:51:40.709Z,43.82
2023-04-10T21:54:09.511Z,44.00
2023-04-10T21:56:41.058Z,44.20
2023-04-10T21:59:09.548Z,44.52
2023-04-10T22:01:41.861Z,44.71
2023-04-10T22:04:10.658Z,44.79
2023-04-10T22:06:39.278Z,45.16
2023-04-10T22:09:07.757Z,45.35
2023-04-10T22:11:37.356Z,45.61
2023-04-10T22:14:17.996Z,45.49
2023-04-10T22:16:48.685Z,45.57
2023-04-10T22:19:17.280Z,45.63
2023-04-10T22:21:52.657Z,45.85
2023-04-10T22:24:21.519Z,46.18
2023-04-10T22:26:50.135Z,46.32
2023-04-10T22:29:19.645Z,46.25
2023-04-10T22:31:48.534Z,46.58
2023-04-10T22:34:17.597Z,46.72
2023-04-10T22:36:46.630Z,46.99
2023-04-10T22:39:15.413Z,47.07
2023-04-10T22:41:45.311Z,46.97
2023-04-10T22:44:14.314Z,47.01
2023-04-10T22:46:49.578Z,47.25
2023-04-10T22:49:18.260Z,47.40
2023-04-10T22:51:46.894Z,47.35
2023-04-10T22:54:16.767Z,47.43
2023-04-10T22:56:45.722Z,47.58
2023-04-10T22:59:14.225Z,47.77
2023-04-10T23:01:45.324Z,47.95
2023-04-10T23:04:14.121Z,48.16
2023-04-10T23:06:44.657Z,48.20
2023-04-10T23:09:13.312Z,48.26
2023-04-10T23:11:48.155Z,48.36
2023-04-10T23:14:18.412Z,48.37
2023-04-10T23:16:47.227Z,48.45
2023-04-10T23:19:16.077Z,48.84
2023-04-10T23:21:44.611Z,48.93
2023-04-10T23:24:14.304Z,49.27
2023-04-10T23:26:43.371Z,49.75
2023-04-10T23:29:12.160Z,49.86
2023-04-10T23:31:40.829Z,50.12
2023-04-10T23:34:10.805Z,50.24
2023-04-10T23:36:40.703Z,50.38
2023-04-10T23:39:09.241Z,50.49
2023-04-10T23:41:38.150Z,50.77
2023-04-10T23:44:07.127Z,50.72
2023-04-10T23:46:35.946Z,50.69
2023-04-10T23:49:05.268Z,51.19
2023-04-10T23:51:34.695Z,51.03
2023-04-10T23:54:04.132Z,51.06
2023-04-10T23:56:32.942Z,51.31
2023-04-10T23:59:01.700Z,51.53
